Time;durP1;ratioP1;P1;durP2;ratioP2;P2;SDS_P1;SDS_P2;PMS_P1;PMS_P2;Temp;Humidity;BMP_temperature;BMP_pressure;BME280_temperature;BME280_humidity;BME280_pressure;Samples;Min_cycle;Max_cycle;Signal;HPM_P1;HPM_P2
2021/01/29 00:01:17;;;;;;;13.83;7.87;;;1.60;99.90;;;;;;5005688;28;20216;-78
2021/01/29 00:03:44;;;;;;;12.53;7.40;;;1.60;99.90;;;;;;5007850;28;20291;-78
2021/01/29 00:06:12;;;;;;;15.20;8.00;;;1.60;99.90;;;;;;5004400;28;20217;-78
2021/01/29 00:08:38;;;;;;;14.87;8.10;;;1.70;99.90;;;;;;5007888;28;20205;-78
2021/01/29 00:11:06;;;;;;;16.93;8.20;;;1.70;99.90;;;;;;5009287;28;20231;-78
2021/01/29 00:13:33;;;;;;;15.53;8.33;;;1.60;99.90;;;;;;5004391;28;20272;-78
2021/01/29 00:15:59;;;;;;;15.20;7.93;;;1.70;99.90;;;;;;5008493;28;20237;-78
2021/01/29 00:18:25;;;;;;;13.67;8.03;;;1.70;99.90;;;;;;5004177;28;20905;-78
2021/01/29 00:20:53;;;;;;;14.97;7.80;;;1.70;99.90;;;;;;5010938;28;20201;-78
2021/01/29 00:23:19;;;;;;;16.93;8.40;;;1.60;99.90;;;;;;5007997;28;20205;-78
2021/01/29 00:25:49;;;;;;;17.30;8.27;;;1.60;99.90;;;;;;5003868;28;20228;-78
2021/01/29 00:28:15;;;;;;;17.27;8.90;;;1.70;99.90;;;;;;5002681;28;20207;-78
2021/01/29 00:30:43;;;;;;;15.87;7.83;;;1.70;99.90;;;;;;5005007;28;20231;-78
2021/01/29 00:33:11;;;;;;;15.00;8.17;;;1.70;99.90;;;;;;5009829;28;20219;-78
2021/01/29 00:35:38;;;;;;;19.23;8.50;;;1.70;99.90;;;;;;5005728;28;20236;-78
2021/01/29 00:38:06;;;;;;;16.67;8.93;;;1.70;99.90;;;;;;5005896;28;20730;-78
2021/01/29 00:40:33;;;;;;;15.60;8.30;;;1.70;99.90;;;;;;5007723;28;20206;-77
2021/01/29 00:43:00;;;;;;;16.50;8.83;;;1.70;99.90;;;;;;5012812;28;20250;-78
2021/01/29 00:45:30;;;;;;;17.50;8.90;;;1.70;99.90;;;;;;5005752;28;20740;-78
2021/01/29 00:47:57;;;;;;;15.73;8.77;;;1.70;99.90;;;;;;5003681;28;20240;-78
2021/01/29 00:50:23;;;;;;;20.20;9.60;;;1.70;99.90;;;;;;5004203;28;20484;-78
2021/01/29 00:52:49;;;;;;;22.23;10.63;;;1.80;99.90;;;;;;5004223;28;20208;-78
2021/01/29 00:55:18;;;;;;;20.80;9.57;;;1.80;99.90;;;;;;5006225;28;20220;-78
2021/01/29 00:57:45;;;;;;;18.77;9.77;;;1.70;99.90;;;;;;5004982;28;20224;-78
2021/01/29 01:00:14;;;;;;;19.60;10.70;;;1.80;99.90;;;;;;5003038;28;20204;-78
2021/01/29 01:02:41;;;;;;;19.03;9.50;;;1.80;99.90;;;;;;5006870;28;20196;-77
2021/01/29 01:05:10;;;;;;;18.10;9.57;;;1.90;99.90;;;;;;5007611;28;20315;-78
2021/01/29 01:07:36;;;;;;;19.43;9.87;;;1.90;99.90;;;;;;5008682;28;20561;-78
2021/01/29 01:10:04;;;;;;;19.70;9.50;;;1.90;99.90;;;;;;5011473;28;20206;-78
2021/01/29 01:12:31;;;;;;;18.80;10.13;;;1.80;99.90;;;;;;4997819;28;20204;-78
2021/01/29 01:14:58;;;;;;;19.03;8.70;;;1.80;99.90;;;;;;5012315;28;20294;-79
2021/01/29 01:17:25;;;;;;;20.53;10.63;;;1.80;99.90;;;;;;5011050;28;20649;-78
2021/01/29 01:19:51;;;;;;;21.37;10.23;;;1.80;99.90;;;;;;5011820;28;20642;-78
2021/01/29 01:22:17;;;;;;;20.77;9.93;;;1.80;99.90;;;;;;5015238;28;20641;-78
2021/01/29 01:24:44;;;;;;;17.83;9.50;;;1.80;99.90;;;;;;5013143;28;20224;-78
2021/01/29 01:27:12;;;;;;;19.47;9.47;;;1.70;99.90;;;;;;5017217;28;20718;-78
2021/01/29 01:29:39;;;;;;;18.97;9.50;;;1.70;99.90;;;;;;5016558;28;20619;-78
2021/01/29 01:32:06;;;;;;;17.53;9.10;;;1.60;99.90;;;;;;5016311;28;20254;-78
2021/01/29 01:34:32;;;;;;;22.50;9.90;;;1.60;99.90;;;;;;5014108;28;20575;-77
2021/01/29 01:36:59;;;;;;;22.93;9.60;;;1.60;99.90;;;;;;5017056;28;20250;-78
2021/01/29 01:39:26;;;;;;;18.83;9.57;;;1.60;99.90;;;;;;5015839;28;20208;-78
2021/01/29 01:41:52;;;;;;;18.77;10.13;;;1.60;99.90;;;;;;5012509;28;20204;-77
2021/01/29 01:44:31;;;;;;;18.50;9.60;;;1.50;99.90;;;;;;5015085;28;20235;-78
2021/01/29 01:47:02;;;;;;;19.27;9.43;;;1.60;99.90;;;;;;5009325;28;20204;-78
2021/01/29 01:49:29;;;;;;;16.87;9.03;;;1.60;99.90;;;;;;5009624;28;20201;-77
2021/01/29 01:52:00;;;;;;;18.33;9.63;;;1.50;99.90;;;;;;5008370;28;20200;-77
2021/01/29 01:54:40;;;;;;;18.23;9.43;;;1.50;99.90;;;;;;5007908;28;20212;-78
2021/01/29 01:57:07;;;;;;;18.77;9.20;;;1.50;99.90;;;;;;5008403;28;20216;-78
2021/01/29 01:59:38;;;;;;;19.37;9.73;;;1.40;99.90;;;;;;5004243;28;20205;-78
2021/01/29 02:02:08;;;;;;;18.87;10.20;;;1.50;99.90;;;;;;5011672;28;20254;-78
2021/01/29 02:04:39;;;;;;;17.53;9.67;;;1.50;99.90;;;;;;5010620;28;20695;-78
2021/01/29 02:07:15;;;;;;;18.07;9.43;;;1.40;99.90;;;;;;5008221;28;20201;-78
2021/01/29 02:09:44;;;;;;;18.67;9.63;;;1.40;99.90;;;;;;5012546;28;20211;-78
2021/01/29 02:12:11;;;;;;;20.07;8.73;;;1.40;99.90;;;;;;5010099;28;20204;-78
2021/01/29 02:14:37;;;;;;;20.37;10.57;;;1.40;99.90;;;;;;5002921;28;20311;-77
2021/01/29 02:17:16;;;;;;;21.03;10.20;;;1.40;99.90;;;;;;5008043;28;20308;-78
2021/01/29 02:20:24;;;;;;;20.07;9.77;;;1.40;99.90;;;;;;5012126;28;20290;-77
2021/01/29 02:23:20;;;;;;;18.57;10.03;;;1.40;99.90;;;;;;5009832;28;20204;-79
2021/01/29 02:26:33;;;;;;;19.70;9.77;;;1.40;99.90;;;;;;5015144;28;20299;-79
2021/01/29 02:29:27;;;;;;;19.87;10.07;;;1.40;99.90;;;;;;5008051;28;20213;-78
2021/01/29 02:32:20;;;;;;;19.50;9.50;;;1.40;99.90;;;;;;5010626;28;20212;-79
2021/01/29 02:35:26;;;;;;;20.73;10.27;;;1.40;99.90;;;;;;5013562;28;20223;-78
2021/01/29 02:38:34;;;;;;;20.77;9.83;;;1.40;99.90;;;;;;5014470;28;20224;-78
2021/01/29 02:41:10;;;;;;;19.57;10.30;;;1.40;99.90;;;;;;5008318;28;20432;-78
2021/01/29 02:43:50;;;;;;;23.67;12.37;;;1.30;99.90;;;;;;5014987;28;20291;-78
2021/01/29 02:46:27;;;;;;;20.90;11.13;;;1.40;99.90;;;;;;5016811;28;20220;-78
2021/01/29 02:49:02;;;;;;;24.83;12.23;;;1.40;99.90;;;;;;5015889;28;20207;-78
2021/01/29 02:51:34;;;;;;;23.10;12.07;;;1.40;99.90;;;;;;5013751;28;20203;-78
2021/01/29 02:54:12;;;;;;;23.57;12.17;;;1.30;99.90;;;;;;5012485;28;20211;-78
2021/01/29 02:56:45;;;;;;;23.70;12.80;;;1.40;99.90;;;;;;5015949;28;20232;-78
2021/01/29 02:59:20;;;;;;;24.27;12.43;;;1.30;99.90;;;;;;5013900;28;20589;-78
2021/01/29 03:01:53;;;;;;;20.77;10.20;;;1.40;99.90;;;;;;5015697;28;20210;-78
2021/01/29 03:04:24;;;;;;;26.33;12.47;;;1.30;99.90;;;;;;5015026;28;20303;-78
2021/01/29 03:06:55;;;;;;;24.13;12.63;;;1.30;99.90;;;;;;5015581;28;20260;-78
2021/01/29 03:09:28;;;;;;;22.33;11.27;;;1.30;99.90;;;;;;5014264;28;20230;-78
2021/01/29 03:12:00;;;;;;;23.33;11.97;;;1.30;99.90;;;;;;5011574;28;20259;-78
2021/01/29 03:14:33;;;;;;;21.53;10.97;;;1.20;99.90;;;;;;5012872;28;20573;-78
2021/01/29 03:17:11;;;;;;;23.27;10.20;;;1.20;99.90;;;;;;5006475;28;20224;-78
2021/01/29 03:19:44;;;;;;;20.17;10.03;;;1.20;99.90;;;;;;5009982;28;20197;-78
2021/01/29 03:22:15;;;;;;;22.23;10.97;;;1.20;99.90;;;;;;5013465;28;20204;-78
2021/01/29 03:24:45;;;;;;;22.00;11.73;;;1.20;99.90;;;;;;5010077;28;20224;-78
2021/01/29 03:27:17;;;;;;;20.27;10.40;;;1.20;99.90;;;;;;5014308;28;20200;-78
2021/01/29 03:29:46;;;;;;;19.00;9.47;;;1.20;99.90;;;;;;5013073;28;20558;-78
2021/01/29 03:32:15;;;;;;;19.50;9.27;;;1.30;99.90;;;;;;5013626;28;20212;-78
2021/01/29 03:34:48;;;;;;;22.73;10.27;;;1.20;99.90;;;;;;5014457;28;20263;-78
2021/01/29 03:37:25;;;;;;;17.80;9.27;;;1.20;99.90;;;;;;5015707;28;20625;-78
2021/01/29 03:39:52;;;;;;;22.20;11.80;;;1.20;99.90;;;;;;5013921;28;20204;-78
2021/01/29 03:42:30;;;;;;;20.33;9.40;;;1.20;99.90;;;;;;5015293;28;20218;-79
2021/01/29 03:45:02;;;;;;;20.20;10.63;;;1.20;99.90;;;;;;5008638;28;20768;-78
2021/01/29 03:47:33;;;;;;;22.47;9.57;;;1.20;99.90;;;;;;5012167;28;20218;-78
2021/01/29 03:50:10;;;;;;;19.43;10.13;;;1.30;99.90;;;;;;5014540;28;20226;-78
2021/01/29 03:52:44;;;;;;;20.17;10.70;;;1.10;99.90;;;;;;5013458;28;20303;-79
2021/01/29 03:55:22;;;;;;;22.40;11.27;;;1.20;99.90;;;;;;5010337;28;20224;-78
2021/01/29 03:58:02;;;;;;;20.17;10.73;;;1.20;99.90;;;;;;5015895;28;20289;-78
2021/01/29 04:00:38;;;;;;;20.00;11.13;;;1.20;99.90;;;;;;5014540;28;20211;-78
2021/01/29 04:03:13;;;;;;;19.33;10.30;;;1.00;99.90;;;;;;5013336;28;20299;-79
2021/01/29 04:05:47;;;;;;;22.40;11.40;;;1.20;99.90;;;;;;5014541;28;20227;-78
2021/01/29 04:08:21;;;;;;;19.50;11.07;;;1.20;99.90;;;;;;5013785;28;20200;-79
2021/01/29 04:10:54;;;;;;;18.70;10.20;;;1.20;99.90;;;;;;5003564;28;20204;-80
2021/01/29 04:13:25;;;;;;;16.63;9.97;;;1.20;99.90;;;;;;5011559;28;20672;-79
2021/01/29 04:15:53;;;;;;;17.53;9.37;;;1.20;99.90;;;;;;5020988;28;20276;-79
2021/01/29 04:18:24;;;;;;;20.63;10.70;;;1.20;99.90;;;;;;5013761;28;20328;-79
2021/01/29 04:20:54;;;;;;;19.83;11.23;;;1.20;99.90;;;;;;5015122;28;20200;-78
2021/01/29 04:23:25;;;;;;;19.37;11.03;;;1.20;99.90;;;;;;5015391;28;20206;-78
2021/01/29 04:25:59;;;;;;;19.97;11.13;;;1.20;99.90;;;;;;5014321;28;20315;-78
2021/01/29 04:28:28;;;;;;;20.33;10.87;;;1.30;99.90;;;;;;5015370;28;20200;-79
2021/01/29 04:30:56;;;;;;;20.03;10.90;;;1.20;99.90;;;;;;5011372;28;20273;-79
2021/01/29 04:33:27;;;;;;;19.87;11.47;;;1.20;99.90;;;;;;5013710;28;20211;-79
2021/01/29 04:35:56;;;;;;;18.37;10.93;;;1.30;99.90;;;;;;5014352;28;20216;-79
2021/01/29 04:38:28;;;;;;;20.80;10.93;;;1.20;99.90;;;;;;5006519;28;20243;-78
2021/01/29 04:41:08;;;;;;;21.80;11.20;;;1.30;99.90;;;;;;5016896;28;20200;-79
2021/01/29 04:44:01;;;;;;;24.27;10.77;;;1.20;99.90;;;;;;5017541;28;20660;-78
2021/01/29 04:46:43;;;;;;;18.40;10.07;;;1.30;99.90;;;;;;5008749;28;20247;-79
2021/01/29 04:49:21;;;;;;;18.70;9.83;;;1.20;99.90;;;;;;5013189;28;20200;-79
2021/01/29 04:52:23;;;;;;;20.50;11.60;;;1.30;99.90;;;;;;5013631;28;20261;-79
2021/01/29 04:55:18;;;;;;;21.60;10.27;;;1.30;99.90;;;;;;5008757;28;20227;-79
2021/01/29 04:57:54;;;;;;;18.80;11.43;;;1.30;99.90;;;;;;5004246;28;20677;-79
2021/01/29 05:00:52;;;;;;;21.97;10.47;;;1.20;99.90;;;;;;5004395;28;20208;-77
2021/01/29 05:04:02;;;;;;;21.17;11.93;;;1.30;99.90;;;;;;4967208;28;20210;-79
2021/01/29 05:06:50;;;;;;;19.67;9.87;;;1.30;99.90;;;;;;4931125;29;20230;-78
2021/01/29 05:09:55;;;;;;;16.73;9.30;;;1.30;99.90;;;;;;4929044;29;20217;-78
2021/01/29 05:12:47;;;;;;;20.03;9.77;;;1.30;99.90;;;;;;4998271;28;20214;-78
2021/01/29 05:15:40;;;;;;;18.93;10.10;;;1.30;99.90;;;;;;5012136;28;20227;-78
2021/01/29 05:18:25;;;;;;;19.47;10.10;;;1.30;99.90;;;;;;5007041;28;20224;-78
2021/01/29 05:21:15;;;;;;;18.70;9.70;;;1.30;99.90;;;;;;5012821;28;20208;-78
2021/01/29 05:24:22;;;;;;;20.23;9.33;;;1.30;99.90;;;;;;5003980;28;20205;-78
2021/01/29 05:27:11;;;;;;;18.10;9.60;;;1.30;99.90;;;;;;5011591;28;20202;-78
2021/01/29 05:29:51;;;;;;;20.57;9.50;;;1.30;99.90;;;;;;5012128;28;20205;-78
2021/01/29 05:33:06;;;;;;;18.60;10.10;;;1.30;99.90;;;;;;5010090;28;20204;-79
2021/01/29 05:35:44;;;;;;;17.27;8.83;;;1.30;99.90;;;;;;5000637;28;20223;-78
2021/01/29 05:38:56;;;;;;;20.17;10.30;;;1.30;99.90;;;;;;5018604;28;20774;-78
2021/01/29 05:41:53;;;;;;;18.57;9.30;;;1.40;99.90;;;;;;4977497;28;20223;-78
2021/01/29 05:45:02;;;;;;;21.67;10.07;;;1.30;99.90;;;;;;5011525;28;20689;-79
2021/01/29 05:48:10;;;;;;;23.40;10.30;;;1.20;99.90;;;;;;5002152;28;20287;-79
2021/01/29 05:51:12;;;;;;;20.83;11.17;;;1.30;99.90;;;;;;5013281;28;20196;-78
2021/01/29 05:54:07;;;;;;;21.37;10.00;;;1.30;99.90;;;;;;4999755;28;20214;-79
2021/01/29 05:56:49;;;;;;;23.57;12.00;;;1.20;99.90;;;;;;5010339;28;20228;-78
2021/01/29 05:59:33;;;;;;;23.97;12.73;;;1.20;99.90;;;;;;5012009;28;20210;-78
2021/01/29 06:02:39;;;;;;;23.73;12.43;;;1.20;99.90;;;;;;5013211;28;20554;-78
2021/01/29 06:05:39;;;;;;;26.23;12.43;;;1.20;99.90;;;;;;4978786;28;20220;-78
2021/01/29 06:08:39;;;;;;;17.97;9.90;;;1.20;99.90;;;;;;5018119;28;20195;-79
2021/01/29 06:11:38;;;;;;;25.97;13.27;;;1.20;99.90;;;;;;5015430;28;20203;-79
2021/01/29 06:14:40;;;;;;;25.40;13.10;;;1.20;99.90;;;;;;5018578;28;20208;-78
2021/01/29 06:17:40;;;;;;;26.37;13.53;;;1.20;99.90;;;;;;5008883;28;20692;-78
2021/01/29 06:20:24;;;;;;;24.50;13.07;;;1.20;99.90;;;;;;5015057;28;20205;-78
2021/01/29 06:23:23;;;;;;;25.47;13.70;;;1.20;99.90;;;;;;5014749;28;20569;-78
2021/01/29 06:26:06;;;;;;;24.67;12.97;;;1.20;99.90;;;;;;5014360;28;20232;-79
2021/01/29 06:29:26;;;;;;;26.93;13.73;;;1.30;99.90;;;;;;5014498;28;20197;-79
2021/01/29 06:32:34;;;;;;;26.40;12.13;;;1.20;99.90;;;;;;4966665;28;20246;-78
2021/01/29 06:35:21;;;;;;;24.13;12.13;;;1.20;99.90;;;;;;4995469;28;20722;-78
2021/01/29 06:38:00;;;;;;;26.03;14.43;;;1.30;99.90;;;;;;5015607;28;20232;-79
2021/01/29 06:40:34;;;;;;;28.20;14.70;;;1.30;99.90;;;;;;5015558;28;20408;-78
2021/01/29 06:43:32;;;;;;;27.23;12.47;;;1.20;99.90;;;;;;5013194;28;20207;-78
2021/01/29 06:46:17;;;;;;;26.17;13.13;;;1.30;99.90;;;;;;5004509;28;20375;-78
2021/01/29 06:48:56;;;;;;;27.40;13.90;;;1.40;99.90;;;;;;5008624;28;20204;-78
2021/01/29 06:51:52;;;;;;;28.73;14.87;;;1.30;99.90;;;;;;5016057;28;20204;-79
2021/01/29 06:54:42;;;;;;;28.77;13.67;;;1.30;99.90;;;;;;5017114;28;20687;-79
2021/01/29 06:57:18;;;;;;;38.93;16.00;;;1.30;99.90;;;;;;5015759;28;20230;-78
2021/01/29 07:00:18;;;;;;;30.43;14.57;;;1.30;99.90;;;;;;5015965;28;20204;-79
2021/01/29 07:03:26;;;;;;;24.70;12.50;;;1.30;99.90;;;;;;5016932;28;20718;-78
2021/01/29 07:06:14;;;;;;;26.43;12.97;;;1.30;99.90;;;;;;4991596;28;20235;-78
2021/01/29 07:08:58;;;;;;;31.53;15.00;;;1.30;99.90;;;;;;5015552;28;20208;-79
2021/01/29 07:11:34;;;;;;;30.90;15.17;;;1.40;99.90;;;;;;5016122;28;20201;-79
2021/01/29 07:14:37;;;;;;;34.57;15.70;;;1.40;99.90;;;;;;5017675;28;20294;-78
2021/01/29 07:17:11;;;;;;;32.20;15.97;;;1.40;99.90;;;;;;5015274;28;20220;-79
2021/01/29 07:20:00;;;;;;;32.30;16.03;;;1.40;99.90;;;;;;5015929;28;20200;-78
2021/01/29 07:22:53;;;;;;;32.30;16.40;;;1.40;99.90;;;;;;5009398;28;20204;-79
2021/01/29 07:25:27;;;;;;;30.43;14.73;;;1.40;99.90;;;;;;5013481;28;20229;-78
2021/01/29 07:28:06;;;;;;;33.07;16.90;;;1.40;99.90;;;;;;5011258;28;20662;-78
2021/01/29 07:30:57;;;;;;;35.77;18.20;;;1.40;99.90;;;;;;5011310;28;20253;-79
2021/01/29 07:33:31;;;;;;;33.63;15.80;;;1.40;99.90;;;;;;5016151;28;20295;-78
2021/01/29 07:36:17;;;;;;;33.97;16.20;;;1.40;99.90;;;;;;5013422;28;20227;-78
2021/01/29 07:39:28;;;;;;;35.17;18.80;;;1.40;99.90;;;;;;5022907;28;20220;-79
2021/01/29 07:42:08;;;;;;;34.67;18.00;;;1.50;99.90;;;;;;5012069;28;20342;-79
2021/01/29 07:44:45;;;;;;;34.10;16.93;;;1.40;99.90;;;;;;5016159;28;20204;-78
2021/01/29 07:47:30;;;;;;;36.63;16.93;;;1.50;99.90;;;;;;5015989;28;20622;-79
2021/01/29 07:50:09;;;;;;;40.97;20.30;;;1.50;99.90;;;;;;5018623;28;20670;-78
2021/01/29 07:52:45;;;;;;;31.10;13.97;;;1.50;99.90;;;;;;5015734;28;20230;-78
2021/01/29 07:55:23;;;;;;;38.33;18.17;;;1.50;99.90;;;;;;5014652;28;20223;-79
2021/01/29 07:58:29;;;;;;;33.83;17.23;;;1.50;99.90;;;;;;5009347;28;20672;-78
2021/01/29 08:01:09;;;;;;;33.27;14.87;;;1.50;99.90;;;;;;5016179;28;20204;-78
2021/01/29 08:04:04;;;;;;;34.97;17.90;;;1.40;99.90;;;;;;5014320;28;20212;-78
2021/01/29 08:06:35;;;;;;;33.13;17.23;;;1.50;99.90;;;;;;5021402;28;20234;-77
2021/01/29 08:09:09;;;;;;;28.63;14.30;;;1.50;99.90;;;;;;5015319;28;20262;-78
2021/01/29 08:11:40;;;;;;;31.93;14.60;;;1.50;99.90;;;;;;5020873;28;20192;-78
2021/01/29 08:14:21;;;;;;;34.27;16.80;;;1.50;99.90;;;;;;5024191;28;20313;-78
2021/01/29 08:17:23;;;;;;;34.67;17.43;;;1.50;99.90;;;;;;5012584;28;20261;-77
2021/01/29 08:20:02;;;;;;;33.07;16.87;;;1.50;99.90;;;;;;5005801;28;20210;-78
2021/01/29 08:23:00;;;;;;;34.60;15.93;;;1.50;99.90;;;;;;5012365;28;20254;-78
2021/01/29 08:25:59;;;;;;;31.77;16.03;;;1.50;99.90;;;;;;4993594;28;20224;-76
2021/01/29 08:28:44;;;;;;;34.20;16.40;;;1.50;99.90;;;;;;5008075;28;20201;-77
2021/01/29 08:31:49;;;;;;;32.30;15.27;;;1.50;99.90;;;;;;5010772;28;20204;-78
2021/01/29 08:34:57;;;;;;;35.77;16.63;;;1.50;99.90;;;;;;5009570;28;20208;-77
2021/01/29 08:37:40;;;;;;;33.50;16.73;;;1.50;99.90;;;;;;5010314;28;20220;-77
2021/01/29 08:40:26;;;;;;;31.80;15.43;;;1.50;99.90;;;;;;5010404;28;20299;-77
2021/01/29 08:43:22;;;;;;;32.40;16.97;;;1.50;99.90;;;;;;5014279;28;20204;-78
2021/01/29 08:46:00;;;;;;;30.67;15.57;;;1.60;99.90;;;;;;5007617;28;20216;-78
2021/01/29 08:49:02;;;;;;;35.20;17.73;;;1.50;99.90;;;;;;5012802;28;20211;-78
2021/01/29 08:51:32;;;;;;;30.10;15.37;;;1.30;99.90;;;;;;5008113;28;20211;-77
2021/01/29 08:54:29;;;;;;;33.90;16.23;;;1.50;99.90;;;;;;5011778;28;20257;-77
2021/01/29 08:57:04;;;;;;;33.80;18.23;;;1.50;99.90;;;;;;5011326;28;20231;-77
2021/01/29 08:59:34;;;;;;;29.17;14.70;;;1.50;99.90;;;;;;5003478;28;20205;-78
2021/01/29 09:02:07;;;;;;;29.90;16.53;;;1.60;99.90;;;;;;5010059;28;20295;-77
2021/01/29 09:04:41;;;;;;;30.33;16.10;;;1.60;99.90;;;;;;5010400;28;20215;-77
2021/01/29 09:07:18;;;;;;;30.00;15.60;;;1.60;99.90;;;;;;5011202;28;20197;-76
2021/01/29 09:09:45;;;;;;;26.37;12.70;;;1.60;99.90;;;;;;5010611;28;20230;-76
2021/01/29 09:12:17;;;;;;;27.67;14.13;;;1.60;99.90;;;;;;5011984;28;20200;-78
2021/01/29 09:14:51;;;;;;;29.73;15.60;;;1.60;99.90;;;;;;5006547;28;20231;-77
2021/01/29 09:17:22;;;;;;;32.27;15.13;;;1.60;99.90;;;;;;5010481;28;20221;-78
2021/01/29 09:19:55;;;;;;;29.57;14.70;;;1.60;99.90;;;;;;5011528;28;20196;-77
2021/01/29 09:22:28;;;;;;;28.00;14.43;;;1.60;99.90;;;;;;5006972;28;20227;-78
2021/01/29 09:25:01;;;;;;;28.07;15.10;;;1.60;99.90;;;;;;5007284;28;20216;-78
2021/01/29 09:27:51;;;;;;;29.20;14.40;;;1.60;99.90;;;;;;5011874;28;20200;-77
2021/01/29 09:30:23;;;;;;;27.80;14.67;;;1.60;99.90;;;;;;5010326;28;20205;-77
2021/01/29 09:32:54;;;;;;;29.77;13.47;;;1.60;99.90;;;;;;5006742;28;20205;-77
2021/01/29 09:35:42;;;;;;;23.13;11.83;;;1.60;99.90;;;;;;5007585;28;20558;-77
2021/01/29 09:38:12;;;;;;;30.97;15.40;;;1.60;99.90;;;;;;5007718;28;20222;-77
2021/01/29 09:40:58;;;;;;;28.87;14.23;;;1.60;99.90;;;;;;5009614;28;21213;-77
2021/01/29 09:43:41;;;;;;;26.50;13.37;;;1.50;99.90;;;;;;5012087;28;20292;-77
2021/01/29 09:46:08;;;;;;;28.13;14.97;;;1.50;99.90;;;;;;5014013;28;20269;-77
2021/01/29 09:48:36;;;;;;;30.13;15.23;;;1.60;99.90;;;;;;5013617;28;20208;-76
2021/01/29 09:51:11;;;;;;;30.33;16.63;;;1.50;99.90;;;;;;5014773;28;20205;-77
2021/01/29 09:53:44;;;;;;;33.23;16.73;;;1.50;99.90;;;;;;5006658;28;20205;-77
2021/01/29 09:56:18;;;;;;;32.00;16.57;;;1.50;99.90;;;;;;5003822;28;20711;-77
2021/01/29 09:59:11;;;;;;;31.13;17.63;;;1.50;99.90;;;;;;5003170;28;20585;-78
2021/01/29 10:01:42;;;;;;;35.67;19.13;;;1.60;99.90;;;;;;5004588;28;20205;-78
2021/01/29 10:04:15;;;;;;;32.70;16.60;;;1.50;99.90;;;;;;5003884;28;20295;-78
2021/01/29 10:06:48;;;;;;;34.73;17.70;;;1.50;99.90;;;;;;4999457;28;20714;-77
2021/01/29 10:09:20;;;;;;;32.13;18.07;;;1.50;99.90;;;;;;4998048;28;20580;-78
2021/01/29 10:11:56;;;;;;;32.93;18.67;;;1.50;99.90;;;;;;5008422;28;20292;-77
2021/01/29 10:14:28;;;;;;;33.73;18.53;;;1.50;99.90;;;;;;5006202;28;20636;-78
2021/01/29 10:16:56;;;;;;;33.03;18.73;;;1.50;99.90;;;;;;5013467;28;20200;-78
2021/01/29 10:19:30;;;;;;;29.27;15.03;;;1.50;99.90;;;;;;5012778;28;20702;-78
2021/01/29 10:22:18;;;;;;;35.17;18.50;;;1.50;99.90;;;;;;5014484;28;20243;-78
2021/01/29 10:24:55;;;;;;;33.90;18.77;;;1.50;99.90;;;;;;5010814;28;20260;-78
2021/01/29 10:27:26;;;;;;;31.77;17.33;;;1.40;99.90;;;;;;5011060;28;20777;-78
2021/01/29 10:30:03;;;;;;;35.43;18.73;;;1.50;99.90;;;;;;5014377;28;20291;-77
2021/01/29 10:32:33;;;;;;;35.87;18.93;;;1.40;99.90;;;;;;5013906;28;20266;-77
2021/01/29 10:35:05;;;;;;;33.67;16.50;;;1.50;99.90;;;;;;5013281;28;20224;-77
2021/01/29 10:37:36;;;;;;;35.73;18.13;;;1.50;99.90;;;;;;5012204;28;20696;-77
2021/01/29 10:40:33;;;;;;;30.97;16.33;;;1.50;99.90;;;;;;5013409;28;20239;-77
2021/01/29 10:43:07;;;;;;;32.87;18.97;;;1.50;99.90;;;;;;4968132;28;20197;-77
2021/01/29 10:45:45;;;;;;;33.27;18.10;;;1.50;99.90;;;;;;5012784;28;20333;-78
2021/01/29 10:48:30;;;;;;;30.67;17.43;;;1.50;99.90;;;;;;5013719;28;20648;-77
2021/01/29 10:51:02;;;;;;;33.37;17.90;;;1.50;99.90;;;;;;5010109;28;20228;-77
2021/01/29 10:53:29;;;;;;;27.87;15.80;;;1.50;99.90;;;;;;5005841;28;20208;-78
2021/01/29 10:56:00;;;;;;;30.47;16.70;;;1.50;99.90;;;;;;5005441;28;20709;-77
2021/01/29 10:58:40;;;;;;;30.30;16.53;;;1.50;99.90;;;;;;5005893;28;20772;-76
2021/01/29 11:01:21;;;;;;;28.90;16.10;;;1.50;99.90;;;;;;5006982;28;20235;-77
2021/01/29 11:03:52;;;;;;;27.77;15.93;;;1.50;99.90;;;;;;5007479;28;20563;-77
2021/01/29 11:06:23;;;;;;;27.53;15.90;;;1.50;99.90;;;;;;5003057;28;20521;-77
2021/01/29 11:08:53;;;;;;;28.30;16.07;;;1.60;99.90;;;;;;5004991;28;20571;-77
2021/01/29 11:11:26;;;;;;;29.00;14.93;;;1.50;99.90;;;;;;5007108;28;20212;-78
2021/01/29 11:13:59;;;;;;;28.90;15.50;;;1.50;99.90;;;;;;5008290;28;20208;-77
2021/01/29 11:16:36;;;;;;;31.90;16.27;;;1.50;99.90;;;;;;5007406;28;20283;-77
2021/01/29 11:19:05;;;;;;;28.53;15.27;;;1.60;99.90;;;;;;5002819;28;20255;-77
2021/01/29 11:21:44;;;;;;;28.07;15.40;;;1.60;99.90;;;;;;5009204;28;20250;-77
2021/01/29 11:24:15;;;;;;;27.53;15.43;;;1.60;99.90;;;;;;5002909;28;20204;-77
2021/01/29 11:26:49;;;;;;;28.63;16.03;;;1.60;99.90;;;;;;5006012;28;20293;-77
2021/01/29 11:29:22;;;;;;;26.50;13.90;;;1.60;99.90;;;;;;5000546;28;20207;-77
2021/01/29 11:32:01;;;;;;;25.37;13.73;;;1.60;99.90;;;;;;5001246;28;20261;-77
2021/01/29 11:34:32;;;;;;;26.57;14.23;;;1.60;99.90;;;;;;5001036;28;20201;-77
2021/01/29 11:37:05;;;;;;;26.50;14.43;;;1.60;99.90;;;;;;5007747;28;20212;-78
2021/01/29 11:39:40;;;;;;;26.33;14.20;;;1.60;99.90;;;;;;5003699;28;20625;-77
2021/01/29 11:42:15;;;;;;;24.00;13.50;;;1.60;99.90;;;;;;5000869;28;20204;-76
2021/01/29 11:44:49;;;;;;;24.60;14.13;;;1.70;99.90;;;;;;5003994;28;20573;-77
2021/01/29 11:47:27;;;;;;;25.17;13.30;;;1.70;99.90;;;;;;5006197;28;20288;-78
2021/01/29 11:50:01;;;;;;;24.80;13.13;;;1.70;99.90;;;;;;5005464;28;20662;-75
2021/01/29 11:52:34;;;;;;;23.60;12.77;;;1.70;99.90;;;;;;5006310;28;20672;-77
2021/01/29 11:55:11;;;;;;;23.67;13.03;;;1.70;99.90;;;;;;4996915;28;20224;-78
2021/01/29 11:57:55;;;;;;;22.43;12.77;;;1.70;99.90;;;;;;4995141;28;20692;-77
2021/01/29 12:00:27;;;;;;;24.97;13.40;;;1.70;99.90;;;;;;4997257;28;20208;-77
2021/01/29 12:03:05;;;;;;;22.70;12.50;;;1.70;99.90;;;;;;4998113;28;20404;-78
2021/01/29 12:05:38;;;;;;;23.03;13.40;;;1.80;99.90;;;;;;4995500;28;20217;-76
2021/01/29 12:08:30;;;;;;;22.27;12.47;;;1.80;99.90;;;;;;4999139;28;20208;-78
2021/01/29 12:11:05;;;;;;;23.27;12.80;;;1.70;99.90;;;;;;5000693;28;20239;-77
2021/01/29 12:13:38;;;;;;;22.80;11.90;;;1.80;99.90;;;;;;5002172;28;20587;-79
2021/01/29 12:16:11;;;;;;;23.20;12.50;;;1.80;99.90;;;;;;5003912;28;20217;-78
2021/01/29 12:18:39;;;;;;;19.90;11.33;;;1.80;99.90;;;;;;4999774;28;20218;-78
2021/01/29 12:21:09;;;;;;;21.77;12.77;;;1.80;99.90;;;;;;4999686;28;20246;-78
2021/01/29 12:23:47;;;;;;;19.70;11.13;;;1.80;99.90;;;;;;5003051;28;20208;-78
2021/01/29 12:26:23;;;;;;;21.17;11.33;;;1.90;99.90;;;;;;4995405;28;20602;-77
2021/01/29 12:29:06;;;;;;;20.17;11.07;;;1.80;99.90;;;;;;4996411;28;20236;-77
2021/01/29 12:31:44;;;;;;;19.17;11.07;;;1.70;99.90;;;;;;4998372;28;20295;-77
2021/01/29 12:34:22;;;;;;;20.67;11.33;;;1.70;99.90;;;;;;4998127;28;20208;-77
2021/01/29 12:36:56;;;;;;;22.17;12.00;;;1.70;99.90;;;;;;5001772;28;20485;-78
2021/01/29 12:39:27;;;;;;;23.67;12.30;;;1.70;99.90;;;;;;4999110;28;20597;-77
2021/01/29 12:42:00;;;;;;;20.73;11.90;;;1.70;99.90;;;;;;4998605;28;20213;-78
2021/01/29 12:44:40;;;;;;;20.23;11.67;;;1.80;99.90;;;;;;4997900;28;20670;-78
2021/01/29 12:47:18;;;;;;;21.57;11.80;;;1.70;99.90;;;;;;5000674;28;20224;-77
2021/01/29 12:49:55;;;;;;;23.23;12.63;;;1.70;99.90;;;;;;4999359;28;20212;-77
2021/01/29 12:52:26;;;;;;;19.53;11.13;;;1.70;99.90;;;;;;4996162;28;20274;-77
2021/01/29 12:55:02;;;;;;;20.03;11.00;;;1.70;99.90;;;;;;4993564;28;20719;-77
2021/01/29 12:57:32;;;;;;;21.20;11.90;;;1.80;99.90;;;;;;4997468;28;20258;-77
2021/01/29 13:00:15;;;;;;;22.67;12.03;;;1.70;99.90;;;;;;5001160;28;20200;-77
2021/01/29 13:03:06;;;;;;;18.30;10.67;;;1.90;99.90;;;;;;4996125;28;20236;-77
2021/01/29 13:06:06;;;;;;;23.00;12.20;;;1.80;99.90;;;;;;4999670;28;20220;-78
2021/01/29 13:09:10;;;;;;;18.80;10.03;;;1.80;99.90;;;;;;4979404;28;20296;-77
2021/01/29 13:11:49;;;;;;;18.60;10.47;;;1.70;99.90;;;;;;4997170;28;20205;-77
2021/01/29 13:14:24;;;;;;;18.53;10.30;;;1.70;99.90;;;;;;5000262;28;20490;-77
2021/01/29 13:17:21;;;;;;;16.10;9.40;;;1.70;99.90;;;;;;5006657;28;22180;-77
2021/01/29 13:19:56;;;;;;;19.27;10.17;;;2.00;99.90;;;;;;4996351;28;20209;-77
2021/01/29 13:22:36;;;;;;;16.00;9.10;;;1.80;99.90;;;;;;5007929;28;20208;-77
2021/01/29 13:25:28;;;;;;;18.00;9.73;;;1.80;99.90;;;;;;5010043;28;20270;-77
2021/01/29 13:28:00;;;;;;;16.80;9.20;;;1.70;99.90;;;;;;4995316;28;20231;-78
2021/01/29 13:30:30;;;;;;;15.83;9.10;;;1.80;99.90;;;;;;5009975;28;20207;-77
2021/01/29 13:32:58;;;;;;;15.43;8.63;;;1.80;99.90;;;;;;5007269;28;20247;-77
2021/01/29 13:35:29;;;;;;;17.47;10.27;;;1.80;99.90;;;;;;5011189;28;20228;-77
2021/01/29 13:38:13;;;;;;;20.83;10.93;;;1.80;99.90;;;;;;5008578;28;20226;-77